Time;durP1;ratioP1;P1;durP2;ratioP2;P2;SDS_P1;SDS_P2;PMS_P1;PMS_P2;Temp;Humidity;BMP_temperature;BMP_pressure;BME280_temperature;BME280_humidity;BME280_pressure;Samples;Min_cycle;Max_cycle;Signal;HPM_P1;HPM_P2
2022/07/19 00:00:37;;;;;;;2.72;2.53;;;;;;;;;;5038842;28;20029;-70
2022/07/19 00:03:02;;;;;;;4.35;2.83;;;;;;;;;;5030637;28;20021;-74
2022/07/19 00:05:28;;;;;;;3.10;2.80;;;;;;;;;;5031689;28;20056;-70
2022/07/19 00:07:53;;;;;;;3.75;2.65;;;;;;;;;;5032831;28;20035;-71
2022/07/19 00:10:19;;;;;;;3.92;2.60;;;;;;;;;;5041163;28;20033;-74
2022/07/19 00:12:45;;;;;;;3.08;2.63;;;;;;;;;;5041042;28;20033;-71
2022/07/19 00:15:11;;;;;;;3.20;2.90;;;;;;;;;;5039729;28;20036;-69
2022/07/19 00:17:44;;;;;;;5.38;3.08;;;;;;;;;;5036418;28;20039;-69
2022/07/19 00:20:10;;;;;;;4.22;2.72;;;;;;;;;;5031968;28;20029;-74
2022/07/19 00:22:36;;;;;;;3.35;2.80;;;;;;;;;;5037988;28;20036;-72
2022/07/19 00:25:01;;;;;;;3.00;2.80;;;;;;;;;;5033364;28;20721;-71
2022/07/19 00:27:27;;;;;;;3.50;2.75;;;;;;;;;;5030331;28;20035;-72
2022/07/19 00:29:52;;;;;;;2.97;2.67;;;;;;;;;;5039900;28;20033;-70
2022/07/19 00:32:18;;;;;;;3.13;2.80;;;;;;;;;;5029883;28;20372;-74
2022/07/19 00:34:43;;;;;;;3.17;2.63;;;;;;;;;;5032042;28;20377;-75
2022/07/19 00:37:08;;;;;;;2.97;2.75;;;;;;;;;;5039576;28;20032;-72
2022/07/19 00:39:34;;;;;;;5.20;2.60;;;;;;;;;;5040481;28;20032;-73
2022/07/19 00:41:59;;;;;;;3.10;2.88;;;;;;;;;;5039794;28;21491;-74
2022/07/19 00:44:24;;;;;;;5.00;2.85;;;;;;;;;;5040525;28;20017;-71
2022/07/19 00:46:50;;;;;;;2.72;2.53;;;;;;;;;;5036469;28;20029;-70
2022/07/19 00:49:15;;;;;;;3.20;2.80;;;;;;;;;;5032430;28;20037;-71
2022/07/19 00:51:41;;;;;;;3.92;3.28;;;;;;;;;;5029931;28;20029;-71
2022/07/19 00:54:08;;;;;;;2.60;2.40;;;;;;;;;;5035799;28;20102;-71
2022/07/19 00:56:34;;;;;;;3.92;2.97;;;;;;;;;;5023023;28;20025;-72
2022/07/19 00:59:01;;;;;;;5.22;2.85;;;;;;;;;;5036785;28;20035;-70
2022/07/19 01:01:27;;;;;;;3.83;2.67;;;;;;;;;;5039351;28;20029;-71
2022/07/19 01:03:52;;;;;;;3.35;3.00;;;;;;;;;;5034287;28;20032;-71
2022/07/19 01:06:18;;;;;;;4.00;3.05;;;;;;;;;;5035221;28;20064;-72
2022/07/19 01:08:43;;;;;;;3.38;2.75;;;;;;;;;;5029384;28;20036;-75
2022/07/19 01:11:09;;;;;;;4.97;2.85;;;;;;;;;;5039274;28;20513;-72
2022/07/19 01:13:34;;;;;;;3.03;2.55;;;;;;;;;;5040548;28;20035;-73
2022/07/19 01:16:00;;;;;;;3.85;3.00;;;;;;;;;;5036536;28;20031;-73
2022/07/19 01:18:25;;;;;;;3.22;2.78;;;;;;;;;;5032688;28;20865;-72
2022/07/19 01:20:51;;;;;;;3.70;3.20;;;;;;;;;;5040010;28;20020;-71
2022/07/19 01:23:16;;;;;;;2.92;2.72;;;;;;;;;;5031744;28;20344;-72
2022/07/19 01:25:42;;;;;;;2.97;2.72;;;;;;;;;;5029116;28;20033;-74
2022/07/19 01:28:07;;;;;;;3.88;3.00;;;;;;;;;;5036891;28;20021;-73
2022/07/19 01:30:33;;;;;;;3.15;2.85;;;;;;;;;;5031814;28;20036;-71
2022/07/19 01:32:58;;;;;;;3.35;3.05;;;;;;;;;;5038246;28;20494;-73
2022/07/19 01:35:24;;;;;;;3.20;2.90;;;;;;;;;;5040191;28;20016;-72
2022/07/19 01:37:50;;;;;;;3.13;2.88;;;;;;;;;;5039071;28;20025;-72
2022/07/19 01:40:16;;;;;;;4.10;3.45;;;;;;;;;;5025232;28;20086;-71
2022/07/19 01:42:41;;;;;;;2.88;2.65;;;;;;;;;;5037867;28;20028;-75
2022/07/19 01:45:08;;;;;;;3.50;2.90;;;;;;;;;;5031623;28;20025;-73
2022/07/19 01:47:33;;;;;;;5.00;3.30;;;;;;;;;;5039459;28;20108;-72
2022/07/19 01:49:59;;;;;;;3.85;3.15;;;;;;;;;;5035883;28;20029;-74
2022/07/19 01:52:24;;;;;;;3.75;3.10;;;;;;;;;;5018461;28;20124;-71
2022/07/19 01:54:49;;;;;;;4.57;3.30;;;;;;;;;;5039566;28;20162;-72
2022/07/19 01:57:15;;;;;;;3.58;3.22;;;;;;;;;;5039367;28;20444;-71
2022/07/19 01:59:40;;;;;;;3.63;3.33;;;;;;;;;;5037282;28;20080;-71
2022/07/19 02:02:06;;;;;;;3.05;2.75;;;;;;;;;;5017575;28;20021;-71
2022/07/19 02:04:31;;;;;;;3.55;3.25;;;;;;;;;;5039657;28;20460;-74
2022/07/19 02:06:57;;;;;;;3.17;2.90;;;;;;;;;;5038535;28;20033;-72
2022/07/19 02:09:22;;;;;;;3.00;2.70;;;;;;;;;;5038379;28;20127;-73
2022/07/19 02:11:47;;;;;;;3.47;3.17;;;;;;;;;;5038922;28;20028;-71
2022/07/19 02:14:13;;;;;;;5.40;3.25;;;;;;;;;;5038204;28;20120;-71
2022/07/19 02:16:39;;;;;;;4.57;3.50;;;;;;;;;;5038143;28;20024;-70
2022/07/19 02:19:05;;;;;;;5.90;3.15;;;;;;;;;;5038606;28;20033;-70
2022/07/19 02:21:30;;;;;;;5.88;2.85;;;;;;;;;;5038324;28;20028;-73
2022/07/19 02:23:56;;;;;;;4.03;2.90;;;;;;;;;;5027739;28;20025;-69
2022/07/19 02:26:21;;;;;;;3.35;3.05;;;;;;;;;;5038316;28;20013;-74
2022/07/19 02:28:46;;;;;;;3.83;3.10;;;;;;;;;;5038522;28;20455;-72
2022/07/19 02:31:12;;;;;;;4.60;3.13;;;;;;;;;;5038866;28;20444;-72
2022/07/19 02:33:37;;;;;;;3.15;2.85;;;;;;;;;;5039813;28;20025;-72
2022/07/19 02:36:03;;;;;;;3.53;2.95;;;;;;;;;;5029473;28;20063;-70
2022/07/19 02:38:29;;;;;;;5.47;2.80;;;;;;;;;;5035945;28;20037;-71
2022/07/19 02:40:54;;;;;;;3.53;3.10;;;;;;;;;;5027920;28;20021;-73
2022/07/19 02:43:20;;;;;;;3.60;3.00;;;;;;;;;;5039055;28;20040;-71
2022/07/19 02:45:45;;;;;;;3.15;2.85;;;;;;;;;;5037215;28;20154;-74
2022/07/19 02:48:10;;;;;;;6.57;3.05;;;;;;;;;;5040468;28;20162;-71
2022/07/19 02:50:36;;;;;;;3.42;2.95;;;;;;;;;;5042702;28;20067;-71
2022/07/19 02:53:01;;;;;;;3.35;2.90;;;;;;;;;;5032011;28;20045;-75
2022/07/19 02:55:27;;;;;;;3.28;3.08;;;;;;;;;;5040764;28;20029;-72
2022/07/19 02:57:52;;;;;;;4.70;2.70;;;;;;;;;;5030873;28;20033;-75
2022/07/19 03:00:18;;;;;;;4.05;3.58;;;;;;;;;;5035501;28;20017;-71
2022/07/19 03:02:43;;;;;;;3.42;3.00;;;;;;;;;;5038845;28;20047;-72
2022/07/19 03:05:09;;;;;;;3.40;3.10;;;;;;;;;;5028932;28;20024;-71
2022/07/19 03:07:34;;;;;;;3.88;3.13;;;;;;;;;;5030099;28;20040;-74
2022/07/19 03:09:59;;;;;;;3.75;2.83;;;;;;;;;;5039466;28;20427;-71
2022/07/19 03:12:25;;;;;;;5.03;3.15;;;;;;;;;;5034649;28;20074;-72
2022/07/19 03:14:50;;;;;;;4.63;3.58;;;;;;;;;;5037522;28;20519;-71
2022/07/19 03:17:15;;;;;;;3.65;3.15;;;;;;;;;;5040864;28;20840;-72
2022/07/19 03:19:41;;;;;;;3.00;2.80;;;;;;;;;;5023372;28;20033;-71
2022/07/19 03:22:06;;;;;;;4.18;3.20;;;;;;;;;;5037209;28;20024;-72
2022/07/19 03:24:32;;;;;;;4.45;3.00;;;;;;;;;;5034074;28;20115;-72
2022/07/19 03:26:57;;;;;;;3.47;3.17;;;;;;;;;;5031539;28;20124;-73
2022/07/19 03:29:22;;;;;;;3.72;3.33;;;;;;;;;;5033276;28;20044;-72
2022/07/19 03:31:48;;;;;;;3.83;3.53;;;;;;;;;;5041385;28;20099;-72
2022/07/19 03:34:13;;;;;;;4.15;2.97;;;;;;;;;;5041617;28;20040;-74
2022/07/19 03:36:38;;;;;;;5.00;3.70;;;;;;;;;;5040415;28;20033;-73
2022/07/19 03:39:04;;;;;;;6.32;3.65;;;;;;;;;;5040490;28;20037;-74
2022/07/19 03:41:29;;;;;;;4.38;3.97;;;;;;;;;;5042422;28;20127;-72
2022/07/19 03:43:54;;;;;;;7.65;3.83;;;;;;;;;;5040985;28;20033;-71
2022/07/19 03:46:20;;;;;;;4.10;3.35;;;;;;;;;;5040792;28;20021;-74
2022/07/19 03:48:46;;;;;;;3.95;3.35;;;;;;;;;;5040952;28;20087;-71
2022/07/19 03:51:11;;;;;;;3.67;3.22;;;;;;;;;;5039157;28;20017;-71
2022/07/19 03:53:37;;;;;;;4.30;3.90;;;;;;;;;;5038592;28;20057;-74
2022/07/19 03:56:02;;;;;;;5.53;4.05;;;;;;;;;;5039461;28;20037;-71
2022/07/19 03:58:28;;;;;;;3.78;3.47;;;;;;;;;;5037976;28;20510;-74
2022/07/19 04:00:53;;;;;;;6.10;4.00;;;;;;;;;;5038389;28;20573;-70
2022/07/19 04:03:19;;;;;;;3.63;3.05;;;;;;;;;;5040614;28;20082;-70
2022/07/19 04:05:44;;;;;;;4.55;3.70;;;;;;;;;;5040134;28;20106;-70
2022/07/19 04:08:09;;;;;;;4.38;3.67;;;;;;;;;;5041437;28;20384;-70
2022/07/19 04:10:35;;;;;;;4.38;3.97;;;;;;;;;;5041610;28;20021;-70
2022/07/19 04:13:00;;;;;;;4.05;3.50;;;;;;;;;;5041373;28;20020;-71
2022/07/19 04:15:25;;;;;;;3.95;3.35;;;;;;;;;;5040949;28;20059;-71
2022/07/19 04:17:51;;;;;;;4.35;3.90;;;;;;;;;;5041082;28;20029;-74
2022/07/19 04:20:16;;;;;;;4.00;3.60;;;;;;;;;;5039294;28;20079;-72
2022/07/19 04:22:42;;;;;;;5.35;3.95;;;;;;;;;;5040942;28;20044;-71
2022/07/19 04:25:07;;;;;;;4.43;3.83;;;;;;;;;;5041131;28;20039;-73
2022/07/19 04:27:33;;;;;;;4.70;3.92;;;;;;;;;;5041143;28;20025;-70
2022/07/19 04:29:58;;;;;;;6.53;4.28;;;;;;;;;;5039539;28;20405;-70
2022/07/19 04:32:23;;;;;;;4.53;4.03;;;;;;;;;;5040715;28;20036;-71
2022/07/19 04:34:49;;;;;;;4.32;3.92;;;;;;;;;;5040336;28;20436;-71
2022/07/19 04:37:14;;;;;;;4.68;4.28;;;;;;;;;;5040911;28;20047;-71
2022/07/19 04:39:40;;;;;;;4.18;3.83;;;;;;;;;;5039606;28;20456;-71
2022/07/19 04:42:05;;;;;;;6.57;3.80;;;;;;;;;;5040098;28;20029;-73
2022/07/19 04:44:30;;;;;;;6.70;4.20;;;;;;;;;;5039740;28;20480;-70
2022/07/19 04:46:56;;;;;;;4.53;3.75;;;;;;;;;;5040552;28;20475;-72
2022/07/19 04:49:21;;;;;;;9.48;4.70;;;;;;;;;;5039530;28;20084;-72
2022/07/19 04:51:46;;;;;;;4.93;4.00;;;;;;;;;;5040289;28;20027;-71
2022/07/19 04:54:12;;;;;;;6.50;4.57;;;;;;;;;;5040029;28;20045;-71
2022/07/19 04:56:37;;;;;;;4.70;3.83;;;;;;;;;;5029297;28;20025;-71
2022/07/19 04:59:02;;;;;;;4.13;3.50;;;;;;;;;;5040589;28;20103;-71
2022/07/19 05:01:28;;;;;;;4.82;4.07;;;;;;;;;;5040599;28;20444;-73
2022/07/19 05:03:53;;;;;;;3.85;3.55;;;;;;;;;;5029236;28;20098;-72
2022/07/19 05:06:19;;;;;;;4.82;4.18;;;;;;;;;;5040525;28;20033;-71
2022/07/19 05:08:44;;;;;;;4.43;3.88;;;;;;;;;;5039565;28;20035;-74
2022/07/19 05:11:09;;;;;;;4.43;3.88;;;;;;;;;;5035877;28;20036;-74
2022/07/19 05:13:35;;;;;;;5.22;3.58;;;;;;;;;;5032275;28;20029;-72
2022/07/19 05:16:00;;;;;;;5.43;3.80;;;;;;;;;;5032616;28;20021;-74
2022/07/19 05:18:25;;;;;;;4.03;3.60;;;;;;;;;;5035666;28;20451;-73
2022/07/19 05:20:51;;;;;;;3.75;3.45;;;;;;;;;;5040481;28;20164;-72
2022/07/19 05:23:16;;;;;;;3.85;3.50;;;;;;;;;;5039417;28;20029;-73
2022/07/19 05:25:41;;;;;;;3.58;3.28;;;;;;;;;;5040773;28;20158;-72
2022/07/19 05:28:08;;;;;;;4.63;3.35;;;;;;;;;;5038631;28;20025;-71
2022/07/19 05:30:33;;;;;;;4.00;3.38;;;;;;;;;;5039263;28;20025;-74
2022/07/19 05:32:58;;;;;;;4.82;3.30;;;;;;;;;;5028956;28;20497;-71
2022/07/19 05:35:24;;;;;;;4.00;3.25;;;;;;;;;;5040244;28;20040;-75
2022/07/19 05:37:49;;;;;;;5.65;3.40;;;;;;;;;;5038742;28;20120;-71
2022/07/19 05:40:15;;;;;;;5.82;3.63;;;;;;;;;;5033232;28;20110;-73
2022/07/19 05:42:40;;;;;;;5.72;3.40;;;;;;;;;;5028023;28;20346;-75
2022/07/19 05:45:05;;;;;;;3.15;2.85;;;;;;;;;;5026347;28;20036;-72
2022/07/19 05:47:31;;;;;;;7.20;2.95;;;;;;;;;;5028580;28;20033;-71
2022/07/19 05:49:59;;;;;;;3.90;3.00;;;;;;;;;;5027780;28;20037;-71
2022/07/19 05:52:24;;;;;;;2.95;2.75;;;;;;;;;;5027563;28;20060;-74
2022/07/19 05:54:49;;;;;;;3.47;2.80;;;;;;;;;;5029963;28;20033;-73
2022/07/19 05:57:15;;;;;;;3.20;2.90;;;;;;;;;;5030078;28;20078;-74
2022/07/19 05:59:40;;;;;;;3.10;2.90;;;;;;;;;;5028894;28;22108;-74
2022/07/19 06:02:05;;;;;;;8.40;6.20;;;;;;;;;;5028445;28;20352;-72
2022/07/19 06:04:31;;;;;;;8.45;6.00;;;;;;;;;;5029218;28;20036;-74
2022/07/19 06:06:56;;;;;;;7.90;5.05;;;;;;;;;;5028802;28;20061;-72
2022/07/19 06:09:21;;;;;;;4.30;3.90;;;;;;;;;;5029323;28;20035;-73
2022/07/19 06:11:47;;;;;;;5.00;3.88;;;;;;;;;;5028208;28;20043;-75
2022/07/19 06:14:12;;;;;;;5.15;3.50;;;;;;;;;;5029688;28;20353;-72
2022/07/19 06:16:40;;;;;;;11.70;5.32;;;;;;;;;;5028787;28;20120;-72
2022/07/19 06:19:05;;;;;;;4.05;3.75;;;;;;;;;;5026484;28;20128;-74
2022/07/19 06:21:31;;;;;;;4.63;3.15;;;;;;;;;;5028633;28;20431;-72
2022/07/19 06:23:56;;;;;;;4.50;3.30;;;;;;;;;;5031669;28;20028;-71
2022/07/19 06:26:22;;;;;;;3.67;3.00;;;;;;;;;;5032177;28;20029;-73
2022/07/19 06:28:47;;;;;;;11.25;3.10;;;;;;;;;;5033946;28;20091;-71
2022/07/19 06:31:13;;;;;;;4.85;3.20;;;;;;;;;;5042886;28;20044;-74
2022/07/19 06:33:39;;;;;;;3.80;3.28;;;;;;;;;;5043451;28;20064;-71
2022/07/19 06:36:05;;;;;;;4.43;2.78;;;;;;;;;;5043788;28;20622;-71
2022/07/19 06:38:30;;;;;;;2.85;2.55;;;;;;;;;;5043398;28;20032;-71
2022/07/19 06:40:55;;;;;;;3.72;3.25;;;;;;;;;;5042598;28;20086;-72
2022/07/19 06:43:21;;;;;;;3.45;2.65;;;;;;;;;;5043206;28;20358;-73
2022/07/19 06:45:46;;;;;;;6.70;2.60;;;;;;;;;;5043605;28;20021;-72
2022/07/19 06:48:11;;;;;;;3.17;2.60;;;;;;;;;;5043275;28;20047;-72
2022/07/19 06:50:37;;;;;;;4.13;2.22;;;;;;;;;;5044462;28;20021;-75
2022/07/19 06:53:02;;;;;;;4.72;3.05;;;;;;;;;;5042826;28;20372;-72
2022/07/19 06:55:28;;;;;;;3.03;2.63;;;;;;;;;;5042522;28;20116;-71
2022/07/19 06:57:54;;;;;;;2.80;2.60;;;;;;;;;;5042650;28;20130;-71
2022/07/19 07:00:20;;;;;;;3.70;2.78;;;;;;;;;;5042098;28;20073;-71
2022/07/19 07:02:45;;;;;;;3.35;2.58;;;;;;;;;;5041645;28;20041;-72
2022/07/19 07:05:11;;;;;;;2.75;2.38;;;;;;;;;;5041963;28;20032;-72
2022/07/19 07:07:37;;;;;;;4.32;2.72;;;;;;;;;;5043182;28;20033;-75
2022/07/19 07:10:03;;;;;;;2.78;2.40;;;;;;;;;;5042202;28;20036;-72
2022/07/19 07:12:29;;;;;;;2.50;2.30;;;;;;;;;;5042738;28;20074;-71
2022/07/19 07:14:54;;;;;;;2.90;2.55;;;;;;;;;;5041544;28;20028;-72
2022/07/19 07:17:19;;;;;;;4.32;2.50;;;;;;;;;;5043497;28;20028;-72
2022/07/19 07:19:45;;;;;;;3.33;2.58;;;;;;;;;;5042831;28;20057;-74
2022/07/19 07:22:10;;;;;;;5.25;2.55;;;;;;;;;;5043458;28;20500;-72
2022/07/19 07:24:36;;;;;;;2.85;2.22;;;;;;;;;;5042950;28;20407;-71
2022/07/19 07:27:01;;;;;;;2.28;1.98;;;;;;;;;;5042314;28;20034;-73
2022/07/19 07:29:27;;;;;;;2.50;2.30;;;;;;;;;;5044318;28;20047;-72
2022/07/19 07:31:52;;;;;;;2.65;2.45;;;;;;;;;;5043733;28;20048;-71
2022/07/19 07:34:17;;;;;;;3.33;2.55;;;;;;;;;;5043505;28;20025;-73
2022/07/19 07:36:44;;;;;;;2.83;2.30;;;;;;;;;;5042184;28;20024;-71
2022/07/19 07:39:10;;;;;;;2.58;2.38;;;;;;;;;;5040801;28;20033;-70
2022/07/19 07:41:35;;;;;;;3.22;2.30;;;;;;;;;;5043056;28;20097;-74
2022/07/19 07:44:01;;;;;;;2.85;2.17;;;;;;;;;;5042040;28;20391;-73
2022/07/19 07:46:26;;;;;;;2.15;2.03;;;;;;;;;;5042799;28;20100;-72
2022/07/19 07:48:51;;;;;;;5.53;2.50;;;;;;;;;;5043632;28;20056;-72
2022/07/19 07:51:17;;;;;;;3.10;2.53;;;;;;;;;;5043385;28;20033;-75
2022/07/19 07:53:42;;;;;;;4.97;2.33;;;;;;;;;;5042325;28;20056;-72
2022/07/19 07:56:07;;;;;;;2.00;1.90;;;;;;;;;;5042249;28;20028;-72
2022/07/19 07:58:33;;;;;;;2.30;2.13;;;;;;;;;;5042432;28;20086;-72
2022/07/19 08:00:58;;;;;;;2.50;2.20;;;;;;;;;;5042004;28;20032;-72
2022/07/19 08:03:23;;;;;;;2.60;2.03;;;;;;;;;;5042538;28;20017;-72
2022/07/19 08:05:49;;;;;;;2.17;1.98;;;;;;;;;;5042878;28;20025;-75
2022/07/19 08:08:15;;;;;;;3.17;2.35;;;;;;;;;;5041301;28;20460;-74
2022/07/19 08:10:40;;;;;;;3.38;2.33;;;;;;;;;;5042882;28;20467;-73
2022/07/19 08:13:05;;;;;;;2.03;1.83;;;;;;;;;;5041373;28;20031;-72
2022/07/19 08:15:31;;;;;;;2.55;2.00;;;;;;;;;;5042230;28;20035;-72
2022/07/19 08:17:56;;;;;;;2.10;1.90;;;;;;;;;;5041340;28;20029;-71
2022/07/19 08:20:21;;;;;;;3.80;1.80;;;;;;;;;;5041258;28;20123;-72
2022/07/19 08:22:47;;;;;;;7.55;2.15;;;;;;;;;;5041404;28;20441;-72
2022/07/19 08:25:16;;;;;;;5.28;2.00;;;;;;;;;;5042014;28;20025;-71
2022/07/19 08:27:41;;;;;;;3.80;2.20;;;;;;;;;;5040326;28;20037;-72
2022/07/19 08:30:07;;;;;;;2.63;2.08;;;;;;;;;;5041905;28;20440;-72
2022/07/19 08:32:32;;;;;;;6.32;2.28;;;;;;;;;;5028933;28;20352;-74
2022/07/19 08:34:58;;;;;;;3.53;1.95;;;;;;;;;;5041061;28;20056;-75
2022/07/19 08:37:23;;;;;;;3.58;2.40;;;;;;;;;;5041343;28;20078;-73
2022/07/19 08:39:48;;;;;;;3.97;1.95;;;;;;;;;;5041698;28;20055;-72
2022/07/19 08:42:18;;;;;;;2.45;2.05;;;;;;;;;;5041316;28;20039;-75
2022/07/19 08:44:45;;;;;;;3.30;1.80;;;;;;;;;;5041626;28;20343;-76
2022/07/19 08:47:11;;;;;;;4.78;1.80;;;;;;;;;;5040314;28;20029;-72
2022/07/19 08:49:37;;;;;;;4.97;2.00;;;;;;;;;;5041792;28;20029;-72
2022/07/19 08:52:02;;;;;;;4.40;1.83;;;;;;;;;;5041509;28;20079;-72
2022/07/19 08:54:27;;;;;;;2.65;2.05;;;;;;;;;;5041197;28;20184;-72
2022/07/19 08:59:37;;;;;;;3.20;1.77;;;;;;;;;;5036800;28;20142;-73
2022/07/19 09:02:02;;;;;;;3.00;2.08;;;;;;;;;;5032317;28;20448;-72
2022/07/19 09:04:30;;;;;;;2.05;1.80;;;;;;;;;;5041511;28;20471;-76
2022/07/19 09:06:56;;;;;;;3.33;1.92;;;;;;;;;;5041086;28;20033;-72
2022/07/19 09:09:28;;;;;;;1.80;1.70;;;;;;;;;;5040771;28;20356;-72
2022/07/19 09:11:56;;;;;;;1.70;1.60;;;;;;;;;;5040250;28;20116;-73
2022/07/19 09:14:26;;;;;;;2.55;1.80;;;;;;;;;;5041203;28;20062;-72
2022/07/19 09:16:55;;;;;;;2.28;1.60;;;;;;;;;;5037800;28;20040;-73
2022/07/19 09:19:22;;;;;;;2.13;1.33;;;;;;;;;;5030303;28;20041;-74
2022/07/19 09:21:55;;;;;;;4.25;1.70;;;;;;;;;;5031342;28;20474;-71
2022/07/19 09:24:21;;;;;;;1.50;1.40;;;;;;;;;;5040524;28;20393;-72
2022/07/19 09:26:56;;;;;;;3.92;1.60;;;;;;;;;;5041101;28;20094;-75
2022/07/19 09:29:22;;;;;;;3.20;1.77;;;;;;;;;;5040576;28;20031;-74
2022/07/19 09:31:59;;;;;;;3.88;2.25;;;;;;;;;;5039692;28;20029;-71
2022/07/19 09:34:32;;;;;;;6.07;2.00;;;;;;;;;;5040728;28;20440;-74
2022/07/19 09:37:08;;;;;;;2.00;1.42;;;;;;;;;;5039668;28;20444;-72
2022/07/19 09:39:33;;;;;;;2.22;1.70;;;;;;;;;;5038654;28;20060;-73
2022/07/19 09:41:58;;;;;;;2.47;1.48;;;;;;;;;;5040319;28;20057;-72
2022/07/19 09:44:24;;;;;;;2.35;1.40;;;;;;;;;;5040755;28;20049;-72
2022/07/19 09:46:50;;;;;;;4.10;2.05;;;;;;;;;;5039559;28;20036;-72
2022/07/19 09:49:17;;;;;;;2.10;1.90;;;;;;;;;;5039375;28;20036;-71
2022/07/19 09:51:46;;;;;;;3.45;1.67;;;;;;;;;;5033289;28;20033;-72
2022/07/19 09:54:19;;;;;;;4.35;1.80;;;;;;;;;;5028215;28;20368;-72
2022/07/19 09:56:45;;;;;;;1.85;1.73;;;;;;;;;;5029571;28;20033;-74
2022/07/19 09:59:11;;;;;;;2.08;1.40;;;;;;;;;;5032029;28;20353;-71
2022/07/19 10:01:37;;;;;;;2.90;1.88;;;;;;;;;;5039833;28;20033;-72
2022/07/19 10:04:07;;;;;;;4.65;1.95;;;;;;;;;;5032942;28;20021;-72
2022/07/19 10:06:32;;;;;;;2.80;1.60;;;;;;;;;;5032663;28;20036;-71
2022/07/19 10:08:58;;;;;;;1.88;1.50;;;;;;;;;;5030907;28;20020;-73
2022/07/19 10:11:24;;;;;;;2.85;1.80;;;;;;;;;;5032376;28;20025;-75
2022/07/19 10:13:50;;;;;;;3.00;1.58;;;;;;;;;;5031809;28;20028;-72
2022/07/19 10:16:18;;;;;;;4.93;2.42;;;;;;;;;;5029632;28;20037;-72
2022/07/19 10:18:51;;;;;;;2.65;1.80;;;;;;;;;;5029414;28;20351;-71
2022/07/19 10:21:17;;;;;;;2.15;1.85;;;;;;;;;;5044671;28;20037;-73
2022/07/19 10:23:51;;;;;;;2.70;2.45;;;;;;;;;;5044445;28;20024;-72
2022/07/19 10:26:35;;;;;;;2.33;1.92;;;;;;;;;;5044328;28;20021;-75
2022/07/19 10:29:17;;;;;;;2.65;1.92;;;;;;;;;;5044413;28;20032;-73
2022/07/19 10:32:00;;;;;;;4.43;1.73;;;;;;;;;;5044748;28;20101;-75
2022/07/19 10:34:25;;;;;;;2.17;1.67;;;;;;;;;;5044482;28;20360;-71
2022/07/19 10:36:51;;;;;;;4.15;1.80;;;;;;;;;;5043395;28;20029;-76
2022/07/19 10:39:35;;;;;;;2.90;1.70;;;;;;;;;;5043425;28;20444;-70
2022/07/19 10:42:21;;;;;;;5.30;1.73;;;;;;;;;;5042517;28;20025;-72
2022/07/19 10:45:01;;;;;;;5.65;1.80;;;;;;;;;;5043350;28;21385;-72
2022/07/19 10:47:39;;;;;;;1.73;1.60;;;;;;;;;;5042822;28;20341;-71
2022/07/19 10:50:06;;;;;;;6.38;1.80;;;;;;;;;;5043222;28;20033;-72
2022/07/19 10:52:32;;;;;;;2.42;1.75;;;;;;;;;;5043256;28;20037;-71
2022/07/19 10:55:15;;;;;;;1.60;1.50;;;;;;;;;;5042285;28;20437;-73
2022/07/19 10:57:41;;;;;;;1.60;1.50;;;;;;;;;;5043738;28;20444;-74
2022/07/19 11:00:15;;;;;;;1.85;1.63;;;;;;;;;;5042236;28;20034;-72
2022/07/19 11:02:41;;;;;;;1.80;1.55;;;;;;;;;;5042810;28;20053;-74
2022/07/19 11:05:06;;;;;;;1.77;1.67;;;;;;;;;;5041506;28;20056;-72
2022/07/19 11:07:32;;;;;;;1.95;1.52;;;;;;;;;;5031248;28;20032;-75
2022/07/19 11:09:58;;;;;;;1.67;1.48;;;;;;;;;;5031048;28;20106;-74
2022/07/19 11:12:24;;;;;;;1.67;1.50;;;;;;;;;;5030066;28;20021;-71
2022/07/19 11:14:49;;;;;;;3.55;1.65;;;;;;;;;;5031465;28;20363;-71
2022/07/19 11:17:15;;;;;;;6.80;1.50;;;;;;;;;;5030621;28;20033;-75
2022/07/19 11:19:56;;;;;;;1.85;1.75;;;;;;;;;;5032508;28;20033;-72
2022/07/19 11:22:21;;;;;;;1.88;1.75;;;;;;;;;;5029975;28;20021;-70
2022/07/19 11:24:46;;;;;;;1.67;1.30;;;;;;;;;;5035210;28;20025;-71
2022/07/19 11:27:12;;;;;;;1.70;1.60;;;;;;;;;;5038069;28;20029;-71
2022/07/19 11:29:53;;;;;;;4.03;1.80;;;;;;;;;;5042531;28;20107;-71
2022/07/19 11:32:19;;;;;;;1.50;1.40;;;;;;;;;;5043277;28;20029;-71
2022/07/19 11:34:58;;;;;;;2.25;1.83;;;;;;;;;;5043153;28;20025;-75
2022/07/19 11:37:27;;;;;;;3.00;1.88;;;;;;;;;;5042900;28;20036;-73
2022/07/19 11:39:52;;;;;;;2.03;1.65;;;;;;;;;;5043463;28;20036;-74
2022/07/19 11:42:31;;;;;;;15.73;1.60;;;;;;;;;;5042808;28;20061;-74
2022/07/19 11:44:57;;;;;;;2.72;1.52;;;;;;;;;;5042943;28;20083;-72
2022/07/19 11:47:22;;;;;;;2.97;1.70;;;;;;;;;;5043098;28;20033;-71
2022/07/19 11:49:48;;;;;;;3.53;1.55;;;;;;;;;;5042552;28;20052;-71
2022/07/19 11:52:13;;;;;;;3.10;1.90;;;;;;;;;;5042010;28;20059;-71
2022/07/19 11:54:38;;;;;;;2.15;1.77;;;;;;;;;;5042061;28;20025;-72
2022/07/19 11:57:04;;;;;;;3.03;1.52;;;;;;;;;;5042391;28;20013;-73
2022/07/19 11:59:29;;;;;;;2.90;1.80;;;;;;;;;;5042199;28;20097;-71
2022/07/19 12:01:57;;;;;;;3.83;1.58;;;;;;;;;;5042321;28;20967;-75
2022/07/19 12:04:23;;;;;;;1.52;1.42;;;;;;;;;;5041572;28;20147;-73
2022/07/19 12:06:50;;;;;;;2.38;1.70;;;;;;;;;;5043033;28;20033;-71
2022/07/19 12:09:16;;;;;;;2.72;1.80;;;;;;;;;;5042494;28;20419;-71
2022/07/19 12:11:42;;;;;;;1.90;1.80;;;;;;;;;;5040439;28;20388;-71
2022/07/19 12:14:16;;;;;;;3.03;1.88;;;;;;;;;;5042764;28;20032;-72
2022/07/19 12:16:42;;;;;;;2.22;1.88;;;;;;;;;;5042167;28;20036;-72
2022/07/19 12:19:10;;;;;;;4.30;2.08;;;;;;;;;;5041950;28;20505;-72
2022/07/19 12:21:37;;;;;;;3.07;1.73;;;;;;;;;;5041155;28;20040;-70
2022/07/19 12:24:21;;;;;;;5.60;1.95;;;;;;;;;;5033196;28;20444;-72
2022/07/19 12:26:59;;;;;;;3.95;1.70;;;;;;;;;;5041802;28;20032;-73
2022/07/19 12:29:24;;;;;;;2.50;1.95;;;;;;;;;;5041093;28;20093;-71
2022/07/19 12:31:51;;;;;;;2.50;1.30;;;;;;;;;;5042462;28;20043;-72
2022/07/19 12:34:17;;;;;;;2.63;1.67;;;;;;;;;;5042738;28;20044;-74
2022/07/19 12:36:42;;;;;;;1.70;1.60;;;;;;;;;;5042272;28;20033;-72
2022/07/19 12:39:18;;;;;;;3.63;1.60;;;;;;;;;;5042156;28;20368;-74
2022/07/19 12:42:16;;;;;;;1.90;1.50;;;;;;;;;;5041320;28;20028;-75
2022/07/19 12:44:41;;;;;;;2.58;1.77;;;;;;;;;;4944705;28;20038;-72
2022/07/19 12:47:07;;;;;;;1.40;1.30;;;;;;;;;;4941471;28;20042;-72
2022/07/19 12:49:45;;;;;;;1.60;1.50;;;;;;;;;;4927611;28;20043;-72
2022/07/19 12:52:11;;;;;;;1.95;1.70;;;;;;;;;;4941315;28;20027;-75
2022/07/19 12:54:36;;;;;;;4.97;1.60;;;;;;;;;;4942960;28;20043;-71
2022/07/19 12:57:02;;;;;;;4.88;1.60;;;;;;;;;;4940155;28;20809;-75
2022/07/19 12:59:39;;;;;;;3.33;1.90;;;;;;;;;;4941945;28;20669;-73
2022/07/19 13:02:05;;;;;;;2.63;1.67;;;;;;;;;;4941847;28;21170;-71
2022/07/19 13:04:30;;;;;;;4.93;1.48;;;;;;;;;;4929987;28;20034;-71
2022/07/19 13:06:55;;;;;;;2.72;1.70;;;;;;;;;;4918325;28;20039;-75
2022/07/19 13:09:21;;;;;;;11.60;2.58;;;;;;;;;;4925955;28;20039;-71
2022/07/19 13:11:46;;;;;;;10.82;2.00;;;;;;;;;;4940309;28;20035;-72
2022/07/19 13:14:12;;;;;;;6.07;1.90;;;;;;;;;;4942212;28;20095;-71
2022/07/19 13:16:37;;;;;;;8.63;1.73;;;;;;;;;;4941713;28;20086;-72
2022/07/19 13:19:03;;;;;;;2.55;1.50;;;;;;;;;;4940883;28;20438;-73
2022/07/19 13:21:29;;;;;;;4.25;1.50;;;;;;;;;;5009538;28;20063;-74
2022/07/19 13:23:54;;;;;;;7.57;1.80;;;;;;;;;;5030420;28;20024;-74
2022/07/19 13:26:20;;;;;;;6.63;1.60;;;;;;;;;;5026015;28;20128;-73
2022/07/19 13:28:45;;;;;;;2.80;1.67;;;;;;;;;;5038762;28;20634;-73
2022/07/19 13:31:10;;;;;;;1.60;1.50;;;;;;;;;;5040604;28;20047;-72
2022/07/19 13:33:36;;;;;;;2.17;1.60;;;;;;;;;;5040916;28;20119;-71
2022/07/19 13:36:01;;;;;;;1.60;1.50;;;;;;;;;;5039924;28;20033;-72
2022/07/19 13:38:26;;;;;;;7.43;1.30;;;;;;;;;;5041189;28;20040;-71
2022/07/19 13:40:52;;;;;;;1.67;1.58;;;;;;;;;;5040481;28;20029;-73
2022/07/19 13:43:17;;;;;;;2.85;1.50;;;;;;;;;;5038453;28;20475;-72
2022/07/19 13:45:43;;;;;;;2.55;1.42;;;;;;;;;;5027379;28;20103;-72
2022/07/19 13:48:08;;;;;;;3.05;1.52;;;;;;;;;;5038754;28;20040;-72
2022/07/19 13:50:34;;;;;;;2.78;1.58;;;;;;;;;;5039736;28;20495;-77
2022/07/19 13:53:01;;;;;;;1.50;1.38;;;;;;;;;;5039618;28;20049;-73
2022/07/19 13:55:26;;;;;;;2.95;1.33;;;;;;;;;;5040221;28;20060;-72
2022/07/19 13:57:52;;;;;;;1.58;1.40;;;;;;;;;;5041506;28;20056;-73
2022/07/19 14:00:17;;;;;;;1.92;1.35;;;;;;;;;;5040735;28;20045;-72
2022/07/19 14:02:43;;;;;;;2.63;1.40;;;;;;;;;;5041114;28;20124;-74
2022/07/19 14:05:08;;;;;;;2.55;1.70;;;;;;;;;;5040959;28;20032;-72
2022/07/19 14:07:34;;;;;;;2.63;1.40;;;;;;;;;;5041148;28;20550;-71
2022/07/19 14:09:59;;;;;;;1.92;1.40;;;;;;;;;;5040180;28;20029;-73
2022/07/19 14:12:25;;;;;;;4.05;1.83;;;;;;;;;;5040927;28;20040;-71
2022/07/19 14:14:50;;;;;;;5.60;1.65;;;;;;;;;;5041533;28;20090;-73
2022/07/19 14:17:16;;;;;;;2.60;1.60;;;;;;;;;;5041824;28;20339;-73
2022/07/19 14:19:42;;;;;;;1.55;1.38;;;;;;;;;;5040868;28;20033;-73
2022/07/19 14:22:07;;;;;;;1.63;1.52;;;;;;;;;;5041139;28;20071;-72
2022/07/19 14:24:33;;;;;;;1.50;1.40;;;;;;;;;;5041134;28;20547;-72
2022/07/19 14:26:58;;;;;;;4.00;1.58;;;;;;;;;;5040744;28;20448;-72
2022/07/19 14:29:23;;;;;;;1.52;1.40;;;;;;;;;;5039267;28;20036;-72
2022/07/19 14:31:49;;;;;;;2.35;1.40;;;;;;;;;;5041048;28;20118;-70
2022/07/19 14:34:14;;;;;;;1.30;1.20;;;;;;;;;;5035983;28;20025;-70
2022/07/19 14:36:40;;;;;;;1.25;1.15;;;;;;;;;;5030023;28;20455;-75
2022/07/19 14:39:06;;;;;;;3.28;1.67;;;;;;;;;;5040400;28;20025;-75
2022/07/19 14:41:31;;;;;;;5.10;1.88;;;;;;;;;;5027967;28;20390;-72